Terminal Aerodrome Forecast
Issued by NWS

Home | Current Version | Previous Version | Text Only | Print | Product List | Glossary On
Versions: 1 2 3 4 5 6 7 8 9 10 11 12 13 14 15 16
318
FTUS45 KRIW 031735
TAFCPR
TAF
KCPR 031735Z 0318/0418 24013G21KT P6SM VCSH SCT025 BKN060
     FM032100 23014G20KT P6SM SCT060
     FM040300 22015G25KT P6SM SCT060 BKN150=

USA.gov is the U.S. government's official web portal to all federal, state and local government web resources and services.